Menu Close Menu
Station Historical Data
Daily Summary for March 28, 2017 Units:  Metric    English   Both
« Previous Day
Next Day »
Daily Weekly Monthly Yearly Custom
  High: Low: Average:
Temperature: 25.1 °C 16.6 °C 20.9 °C
Dew Point: 15.4 °C 12.4 °C 13.9 °C
Humidity: 79% 52% 65%
Wind Speed: 3.2km/h 0km/h 0.3km/h
Wind Gust: 9.7km/h - -
Wind- - SW
Pressure: 1016.1 hPa 1013.8 hPa -
Precipitation: 1.78 mm    
Historical Graphs
 
 
Tabular Data for March 28, 2017
Time Temperature Dew Point Pressure Wind Wind Speed Wind Gust Humidity Rainfall Rate (Hourly) solar Conditions
16:45 25.1 °C 15.1 °C 1014.1 hPa Calm   8 km/h 54% 0 mm 0.0 W/m2 SCT
17:00 25 °C 14.8 °C 1013.8 hPa ENE 3.2 km/h 8 km/h 53% 0 mm 0.0 W/m2 SCT
17:15 25.1 °C 15.4 °C 1013.8 hPa Calm   4.8 km/h 55% 0 mm 0.0 W/m2 SCT
17:30 25 °C 15.1 °C 1013.8 hPa Calm   4.8 km/h 54% 0 mm 0.0 W/m2 SCT
17:45 24.9 °C 14.7 °C 1013.8 hPa NW 1.6 km/h 4.8 km/h 53% 0 mm 0.0 W/m2 SCT
18:00 24.6 °C 14.1 °C 1013.8 hPa WSW 1.6 km/h 8 km/h 52% 0 mm 0.0 W/m2 SCT
18:15 24.7 °C 14.4 °C 1013.8 hPa Calm   9.7 km/h 53% 0 mm 0.0 W/m2 SCT
18:30 24.4 °C 14.2 °C 1013.8 hPa Calm   9.7 km/h 53% 0 mm 0.0 W/m2 SCT
18:45 24.1 °C 14.2 °C 1013.8 hPa ESE 1.6 km/h 8 km/h 54% 0 mm 0.0 W/m2 SCT
19:00 23.7 °C 14.4 °C 1014.1 hPa NW 1.6 km/h 4.8 km/h 56% 0 mm 0.0 W/m2 SCT
19:30 23 °C 14.1 °C 1014.4 hPa Calm   3.2 km/h 57% 0 mm 0.0 W/m2 SCT
19:45 22.3 °C 13.8 °C 1014.4 hPa Calm     59% 0 mm 0.0 W/m2 SCT
20:00 21.6 °C 14.3 °C 1014.8 hPa Calm     63% 0 mm 0.0 W/m2 SCT
20:15 20.9 °C 14.1 °C 1014.8 hPa Calm     65% 0 mm 0.0 W/m2 SCT
20:30 20.3 °C 14 °C 1014.8 hPa Calm     67% 0 mm 0.0 W/m2 SCT
20:45 19.8 °C 13.9 °C 1014.8 hPa Calm     69% 0 mm 0.0 W/m2 SCT
21:00 19.4 °C 14 °C 1015.1 hPa Calm     71% 0 mm 0.0 W/m2 SCT
21:15 18.9 °C 13.8 °C 1015.1 hPa Calm     72% 0 mm 0.0 W/m2 SCT
21:30 18.5 °C 13.3 °C 1015.5 hPa Calm     72% 0 mm 0.0 W/m2 SCT
21:45 18.1 °C 13.4 °C 1015.5 hPa Calm     74% 0 mm 0.0 W/m2 SCT
22:00 18.1 °C 13.4 °C 1015.8 hPa Calm     74% 0 mm 0.0 W/m2 SCT
22:15 17.8 °C 13.3 °C 1015.8 hPa Calm     75% 0 mm 0.0 W/m2 SCT
22:30 17.3 °C 13.3 °C 1015.8 hPa Calm     77% 0 mm 0.0 W/m2 SCT
22:45 17 °C 13.3 °C 1016.1 hPa Calm     79% 0 mm 0.0 W/m2 SCT
23:00 16.9 °C 13.1 °C 1016.1 hPa Calm     78% 0 mm 0.0 W/m2 SCT
23:15 16.6 °C 12.8 °C 1016.1 hPa Calm     78% 0 mm 0.0 W/m2 SCT
23:30 16.7 °C 12.8 °C 1016.1 hPa Calm     78% 0 mm 0.0 W/m2 SCT
23:45 16.8 °C 12.4 °C 1016.1 hPa Calm     75% 0 mm 0.0 W/m2 SCT
Piedmont Bend
Compliments of Weather Underground - 4 mb